Time;durP1;ratioP1;P1;durP2;ratioP2;P2;SDS_P1;SDS_P2;PMS_P1;PMS_P2;Temp;Humidity;BMP_temperature;BMP_pressure;BME280_temperature;BME280_humidity;BME280_pressure;Samples;Min_cycle;Max_cycle;Signal;HPM_P1;HPM_P2
2021/09/18 00:02:10;;;;;;;0.40;0.40;;;14.40;99.90;;;;;;5094945;28;20180;-80
2021/09/18 00:04:36;;;;;;;0.37;0.37;;;14.40;99.90;;;;;;5088336;28;20551;-79
2021/09/18 00:07:02;;;;;;;2.73;0.30;;;14.40;99.90;;;;;;5079024;28;20229;-80
2021/09/18 00:09:27;;;;;;;0.40;0.40;;;14.40;99.90;;;;;;5086285;28;20193;-79
2021/09/18 00:11:53;;;;;;;0.50;0.50;;;14.40;99.90;;;;;;5089506;28;20213;-79
2021/09/18 00:14:22;;;;;;;0.10;0.10;;;14.30;99.90;;;;;;5081784;28;20226;-80
2021/09/18 00:16:48;;;;;;;0.73;0.60;;;14.20;99.90;;;;;;5083674;28;20661;-79
2021/09/18 00:19:14;;;;;;;1.07;0.97;;;14.30;99.90;;;;;;5088064;28;20234;-79
2021/09/18 00:21:39;;;;;;;1.47;0.57;;;14.30;99.90;;;;;;5083649;28;20202;-80
2021/09/18 00:24:05;;;;;;;1.13;0.43;;;14.20;99.90;;;;;;5084783;28;20203;-80
2021/09/18 00:26:32;;;;;;;0.67;0.40;;;14.20;99.90;;;;;;5080880;28;20292;-79
2021/09/18 00:28:59;;;;;;;0.37;0.37;;;14.20;99.90;;;;;;5075790;28;20622;-80
2021/09/18 00:31:25;;;;;;;0.60;0.60;;;14.30;99.90;;;;;;5087821;28;20289;-79
2021/09/18 00:33:51;;;;;;;0.43;0.43;;;14.40;99.90;;;;;;5074296;28;20640;-79
2021/09/18 00:36:17;;;;;;;0.40;0.40;;;14.40;99.90;;;;;;5087961;28;20267;-80
2021/09/18 00:38:43;;;;;;;0.33;0.33;;;14.40;99.90;;;;;;5086659;28;20185;-79
2021/09/18 00:41:08;;;;;;;1.30;0.50;;;14.30;99.90;;;;;;5086999;28;20313;-79
2021/09/18 00:43:34;;;;;;;0.70;0.70;;;14.30;99.90;;;;;;5091791;28;20188;-79
2021/09/18 00:46:00;;;;;;;1.93;1.00;;;14.30;99.90;;;;;;5084849;28;20182;-79
2021/09/18 00:48:25;;;;;;;0.20;0.20;;;14.30;99.90;;;;;;5076555;28;20245;-80
2021/09/18 00:50:51;;;;;;;0.20;0.20;;;14.40;99.90;;;;;;5084059;28;20207;-79
2021/09/18 00:53:17;;;;;;;0.57;0.33;;;14.30;99.90;;;;;;5076296;28;20190;-79
2021/09/18 00:55:43;;;;;;;0.77;0.77;;;14.30;99.90;;;;;;5084309;28;20185;-79
2021/09/18 00:58:09;;;;;;;0.30;0.30;;;14.30;99.90;;;;;;5092327;28;20272;-79
2021/09/18 01:00:34;;;;;;;0.60;0.60;;;14.30;99.90;;;;;;5101400;28;20233;-79
2021/09/18 01:03:00;;;;;;;0.30;0.30;;;14.30;99.90;;;;;;5086525;28;20631;-80
2021/09/18 01:05:26;;;;;;;0.60;0.37;;;14.20;99.90;;;;;;5087609;28;20196;-80
2021/09/18 01:07:55;;;;;;;0.50;0.50;;;14.20;99.90;;;;;;5085323;28;20238;-80
2021/09/18 01:10:22;;;;;;;0.50;0.50;;;14.10;99.90;;;;;;5089945;28;20257;-80
2021/09/18 01:13:15;;;;;;;1.27;0.40;;;14.20;99.90;;;;;;5088316;28;20184;-80
2021/09/18 01:15:42;;;;;;;0.20;0.20;;;14.10;99.90;;;;;;5073002;28;20645;-80
2021/09/18 01:18:09;;;;;;;0.10;0.10;;;14.10;99.90;;;;;;5090367;28;20184;-79
2021/09/18 01:20:36;;;;;;;0.13;0.13;;;14.10;99.90;;;;;;5094023;28;20214;-80
2021/09/18 01:23:03;;;;;;;0.33;0.33;;;14.10;99.90;;;;;;5089706;28;20189;-80
2021/09/18 01:25:31;;;;;;;6.33;0.70;;;14.10;99.90;;;;;;5074584;28;20319;-80
2021/09/18 01:27:57;;;;;;;0.40;0.40;;;14.10;99.90;;;;;;5077295;28;20209;-79
2021/09/18 01:30:28;;;;;;;0.73;0.70;;;14.10;99.90;;;;;;5079327;28;20204;-79
2021/09/18 01:32:54;;;;;;;0.40;0.40;;;14.10;99.90;;;;;;5075618;28;20243;-79
2021/09/18 01:35:20;;;;;;;0.40;0.40;;;14.10;99.90;;;;;;5069138;28;20185;-80
2021/09/18 01:37:47;;;;;;;0.30;0.30;;;14.10;99.90;;;;;;5092669;28;20278;-80
2021/09/18 01:40:18;;;;;;;0.20;0.20;;;14.10;99.90;;;;;;5084703;28;20250;-79
2021/09/18 01:42:45;;;;;;;0.43;0.40;;;14.10;99.90;;;;;;5084936;28;20181;-79
2021/09/18 01:45:11;;;;;;;0.50;0.50;;;14.10;99.90;;;;;;5080471;28;20242;-79
2021/09/18 01:47:51;;;;;;;0.57;0.57;;;14.10;99.90;;;;;;5078472;28;20276;-79
2021/09/18 01:50:21;;;;;;;0.47;0.47;;;14.10;99.90;;;;;;5087118;28;20202;-79
2021/09/18 01:52:47;;;;;;;0.20;0.20;;;14.10;99.90;;;;;;5080997;28;20199;-79
2021/09/18 01:55:14;;;;;;;0.20;0.20;;;14.00;99.90;;;;;;5075230;28;20198;-79
2021/09/18 01:57:45;;;;;;;0.90;0.90;;;14.00;99.90;;;;;;5083352;28;20189;-80
2021/09/18 02:00:13;;;;;;;0.20;0.20;;;14.00;99.90;;;;;;5075070;28;20210;-79
2021/09/18 02:02:39;;;;;;;0.40;0.40;;;14.00;99.90;;;;;;5088512;28;20177;-79
2021/09/18 02:05:06;;;;;;;1.13;0.60;;;14.00;99.90;;;;;;5076998;28;20651;-79
2021/09/18 02:07:31;;;;;;;0.30;0.20;;;14.00;99.90;;;;;;5079669;28;20213;-79
2021/09/18 02:09:57;;;;;;;0.10;0.10;;;13.90;99.90;;;;;;5080329;28;20197;-80
2021/09/18 02:12:22;;;;;;;0.30;0.30;;;14.00;99.90;;;;;;5091864;28;20181;-79
2021/09/18 02:14:48;;;;;;;0.23;0.23;;;14.00;99.90;;;;;;5083788;28;20187;-79
2021/09/18 02:17:13;;;;;;;0.40;0.40;;;13.90;99.90;;;;;;5079927;28;20180;-80
2021/09/18 02:19:39;;;;;;;0.27;0.27;;;13.90;99.90;;;;;;5083106;28;20185;-80
2021/09/18 02:22:05;;;;;;;0.37;0.30;;;13.90;99.90;;;;;;5090183;28;20192;-79
2021/09/18 02:24:30;;;;;;;0.20;0.20;;;13.80;99.90;;;;;;5083049;28;20184;-79
2021/09/18 02:26:56;;;;;;;1.10;0.53;;;13.80;99.90;;;;;;5082468;28;20242;-80
2021/09/18 02:29:21;;;;;;;0.37;0.30;;;13.70;99.90;;;;;;5083101;28;20721;-79
2021/09/18 02:31:47;;;;;;;0.37;0.37;;;13.70;99.90;;;;;;5105175;28;20220;-80
2021/09/18 02:34:13;;;;;;;0.30;0.30;;;13.70;99.90;;;;;;5070453;28;20177;-79
2021/09/18 02:36:38;;;;;;;0.20;0.20;;;13.70;99.90;;;;;;5088940;28;20312;-79
2021/09/18 02:39:04;;;;;;;0.63;0.63;;;13.70;99.90;;;;;;5065403;28;20188;-79
2021/09/18 02:41:29;;;;;;;0.33;0.33;;;13.60;99.90;;;;;;5086036;28;20221;-79
2021/09/18 02:43:55;;;;;;;0.20;0.20;;;13.70;99.90;;;;;;5089142;28;20185;-79
2021/09/18 02:46:21;;;;;;;0.50;0.50;;;13.70;99.90;;;;;;5074773;28;20224;-80
2021/09/18 02:48:46;;;;;;;0.17;0.17;;;13.30;99.90;;;;;;5091104;28;20209;-79
2021/09/18 02:51:12;;;;;;;0.30;0.30;;;13.30;99.90;;;;;;5080281;28;20204;-79
2021/09/18 02:53:37;;;;;;;0.20;0.20;;;13.40;99.90;;;;;;5086661;28;20574;-79
2021/09/18 02:56:04;;;;;;;0.43;0.43;;;13.40;99.90;;;;;;5082631;28;20527;-80
2021/09/18 02:58:29;;;;;;;0.53;0.53;;;13.40;99.90;;;;;;5088512;28;20212;-79
2021/09/18 03:00:55;;;;;;;0.20;0.20;;;13.50;99.90;;;;;;5082149;28;20227;-80
2021/09/18 03:03:21;;;;;;;0.60;0.30;;;13.60;99.90;;;;;;5080095;28;20234;-79
2021/09/18 03:05:46;;;;;;;0.33;0.33;;;13.60;99.90;;;;;;5084884;28;20261;-80
2021/09/18 03:08:12;;;;;;;0.47;0.47;;;13.60;99.90;;;;;;5088322;28;20200;-79
2021/09/18 03:10:37;;;;;;;0.20;0.20;;;13.60;99.90;;;;;;5076163;28;20681;-79
2021/09/18 03:13:03;;;;;;;0.30;0.30;;;13.70;99.90;;;;;;5086035;28;20178;-79
2021/09/18 03:15:28;;;;;;;0.57;0.57;;;13.70;99.90;;;;;;5080383;28;20186;-80
2021/09/18 03:17:55;;;;;;;0.20;0.13;;;13.70;99.90;;;;;;5089407;28;20637;-79
2021/09/18 03:20:21;;;;;;;1.13;0.70;;;13.80;99.90;;;;;;5080433;28;20212;-80
2021/09/18 03:22:47;;;;;;;0.70;0.33;;;13.80;99.90;;;;;;5088659;28;20208;-79
2021/09/18 03:25:12;;;;;;;0.30;0.27;;;13.80;99.90;;;;;;5084125;28;20217;-79
2021/09/18 03:27:38;;;;;;;0.53;0.53;;;13.90;99.90;;;;;;5077979;28;20246;-79
2021/09/18 03:30:05;;;;;;;0.40;0.30;;;13.90;99.90;;;;;;5080492;28;20250;-79
2021/09/18 03:32:31;;;;;;;0.60;0.60;;;13.90;99.90;;;;;;5066604;28;20185;-79
2021/09/18 03:34:56;;;;;;;0.70;0.40;;;13.90;99.90;;;;;;5089673;28;20558;-79
2021/09/18 03:37:22;;;;;;;0.20;0.20;;;13.90;99.90;;;;;;5087158;28;20180;-79
2021/09/18 03:39:48;;;;;;;2.50;0.80;;;13.90;99.90;;;;;;5085100;28;20623;-80
2021/09/18 03:42:13;;;;;;;0.20;0.20;;;13.90;99.90;;;;;;5073421;28;20543;-79
2021/09/18 03:44:39;;;;;;;0.30;0.30;;;13.90;99.90;;;;;;5085015;28;20275;-80
2021/09/18 03:47:05;;;;;;;0.10;0.10;;;14.00;99.90;;;;;;5075120;28;20196;-79
2021/09/18 03:49:31;;;;;;;0.27;0.27;;;13.90;99.90;;;;;;5067021;28;20275;-79
2021/09/18 03:51:56;;;;;;;0.67;0.47;;;13.90;99.90;;;;;;5073924;28;20184;-79
2021/09/18 03:54:22;;;;;;;0.67;0.40;;;14.00;99.90;;;;;;5080300;28;20191;-79
2021/09/18 03:56:49;;;;;;;0.50;0.50;;;14.00;99.90;;;;;;5079187;28;20243;-79
2021/09/18 03:59:14;;;;;;;0.50;0.50;;;14.00;99.90;;;;;;5080014;28;20641;-79
2021/09/18 04:01:40;;;;;;;1.70;0.63;;;13.90;99.90;;;;;;5083821;28;20208;-79
2021/09/18 04:04:06;;;;;;;0.40;0.40;;;13.80;99.90;;;;;;5068617;28;20268;-79
2021/09/18 04:06:31;;;;;;;1.03;0.70;;;13.70;99.90;;;;;;5090404;28;20191;-79
2021/09/18 04:08:57;;;;;;;2.73;0.27;;;13.70;99.90;;;;;;5085078;28;20200;-79
2021/09/18 04:11:23;;;;;;;0.30;0.30;;;13.60;99.90;;;;;;5092772;28;20230;-79
2021/09/18 04:13:51;;;;;;;1.07;0.47;;;13.50;99.90;;;;;;5081951;28;20189;-79
2021/09/18 04:16:18;;;;;;;0.73;0.73;;;13.40;99.90;;;;;;5080349;28;20190;-80
2021/09/18 04:18:43;;;;;;;0.33;0.33;;;13.40;99.90;;;;;;5067864;28;20273;-80
2021/09/18 04:21:09;;;;;;;0.73;0.63;;;13.40;99.90;;;;;;5066285;28;20299;-80
2021/09/18 04:23:34;;;;;;;0.90;0.40;;;13.40;99.90;;;;;;5063241;28;20185;-80
2021/09/18 04:26:00;;;;;;;0.27;0.27;;;13.40;99.90;;;;;;5081256;28;20234;-80
2021/09/18 04:28:25;;;;;;;0.30;0.30;;;13.40;99.90;;;;;;5062603;28;20205;-80
2021/09/18 04:30:51;;;;;;;0.70;0.70;;;13.30;99.90;;;;;;5074380;28;20196;-80
2021/09/18 04:33:16;;;;;;;0.93;0.70;;;13.30;99.90;;;;;;5070194;28;20181;-80
2021/09/18 04:35:42;;;;;;;0.40;0.40;;;13.30;99.90;;;;;;5086607;28;20219;-79
2021/09/18 04:38:08;;;;;;;0.10;0.10;;;13.40;99.90;;;;;;5074815;28;20540;-80
2021/09/18 04:40:33;;;;;;;0.13;0.13;;;13.50;99.90;;;;;;5094444;28;20211;-80
2021/09/18 04:42:59;;;;;;;0.50;0.40;;;13.50;99.90;;;;;;5084594;28;20181;-80
2021/09/18 04:45:24;;;;;;;0.33;0.33;;;13.60;99.90;;;;;;5073164;28;20181;-80
2021/09/18 04:47:50;;;;;;;0.30;0.30;;;13.60;99.90;;;;;;5077164;28;20209;-79
2021/09/18 04:50:16;;;;;;;0.43;0.43;;;13.60;99.90;;;;;;5083277;28;20199;-80
2021/09/18 04:52:41;;;;;;;1.70;0.57;;;13.60;99.90;;;;;;5102576;28;20180;-80
2021/09/18 04:55:07;;;;;;;0.30;0.30;;;13.70;99.90;;;;;;5087509;28;20697;-80
2021/09/18 04:57:33;;;;;;;0.57;0.57;;;13.70;99.90;;;;;;5084351;28;20668;-79
2021/09/18 04:59:58;;;;;;;0.53;0.53;;;13.60;99.90;;;;;;5076185;28;20717;-80
2021/09/18 05:02:24;;;;;;;0.43;0.43;;;13.60;99.90;;;;;;5079943;28;20190;-79
2021/09/18 05:04:49;;;;;;;0.67;0.63;;;13.50;99.90;;;;;;5090309;28;20190;-80
2021/09/18 05:07:15;;;;;;;0.83;0.83;;;13.50;99.90;;;;;;5087866;28;20174;-80
2021/09/18 05:09:40;;;;;;;0.20;0.20;;;13.40;99.90;;;;;;5089156;28;20180;-80
2021/09/18 05:12:06;;;;;;;2.17;0.73;;;13.30;99.90;;;;;;5085463;28;20201;-80
2021/09/18 05:14:32;;;;;;;0.30;0.27;;;13.30;99.90;;;;;;5074407;28;20179;-80
2021/09/18 05:16:57;;;;;;;0.10;0.10;;;13.20;99.90;;;;;;5095718;28;20183;-80
2021/09/18 05:19:23;;;;;;;0.33;0.33;;;13.30;99.90;;;;;;5095871;28;20185;-80
2021/09/18 05:21:48;;;;;;;0.10;0.10;;;13.40;99.90;;;;;;5067787;28;20627;-80
2021/09/18 05:24:14;;;;;;;0.43;0.43;;;13.40;99.90;;;;;;5079125;28;20208;-79
2021/09/18 05:26:40;;;;;;;0.80;0.80;;;13.40;99.90;;;;;;5095501;28;20201;-79
2021/09/18 05:29:05;;;;;;;0.37;0.30;;;13.50;99.90;;;;;;5094920;28;20332;-79
2021/09/18 05:31:31;;;;;;;0.80;0.80;;;13.40;99.90;;;;;;5074447;28;20291;-79
2021/09/18 05:33:56;;;;;;;0.20;0.20;;;13.50;99.90;;;;;;5087766;28;20173;-79
2021/09/18 05:36:22;;;;;;;0.23;0.23;;;13.50;99.90;;;;;;5078869;28;20305;-80
2021/09/18 05:38:48;;;;;;;1.00;0.50;;;13.50;99.90;;;;;;5090797;28;20185;-79
2021/09/18 05:41:14;;;;;;;0.17;0.17;;;13.50;99.90;;;;;;5079495;28;20209;-80
2021/09/18 05:43:39;;;;;;;0.30;0.30;;;13.60;99.90;;;;;;5078621;28;20187;-79
2021/09/18 05:46:05;;;;;;;0.40;0.40;;;13.70;99.90;;;;;;5080313;28;20210;-81
2021/09/18 05:48:30;;;;;;;0.73;0.40;;;13.80;99.90;;;;;;5065610;28;20212;-79
2021/09/18 05:50:56;;;;;;;0.40;0.40;;;14.00;99.90;;;;;;5084927;28;20204;-79
2021/09/18 05:53:21;;;;;;;1.40;1.17;;;14.00;99.90;;;;;;5080481;28;20177;-80
2021/09/18 05:55:47;;;;;;;0.57;0.57;;;14.10;99.90;;;;;;5082403;28;20272;-79
2021/09/18 05:58:12;;;;;;;0.27;0.27;;;14.10;99.90;;;;;;5077035;28;20188;-79
2021/09/18 06:00:38;;;;;;;0.37;0.37;;;14.00;99.90;;;;;;5074618;28;20205;-79
2021/09/18 06:03:04;;;;;;;0.67;0.43;;;14.00;99.90;;;;;;5075627;28;20178;-79
2021/09/18 06:05:30;;;;;;;0.40;0.40;;;13.90;99.90;;;;;;5071521;28;20180;-79
2021/09/18 06:07:55;;;;;;;0.97;0.47;;;14.00;99.90;;;;;;5078444;28;20269;-79
2021/09/18 06:10:21;;;;;;;0.77;0.77;;;13.90;99.90;;;;;;5076044;28;20261;-79
2021/09/18 06:12:46;;;;;;;0.30;0.30;;;13.90;99.90;;;;;;5083543;28;20216;-79
2021/09/18 06:15:12;;;;;;;0.43;0.43;;;14.00;99.90;;;;;;5082685;28;20652;-79
2021/09/18 06:17:38;;;;;;;0.47;0.47;;;14.00;99.90;;;;;;5090612;28;20283;-78
2021/09/18 06:20:04;;;;;;;0.23;0.23;;;14.00;99.90;;;;;;5086562;28;20207;-79
2021/09/18 06:22:30;;;;;;;0.40;0.40;;;14.00;99.90;;;;;;5081152;28;20696;-79
2021/09/18 06:24:55;;;;;;;0.30;0.30;;;14.20;99.90;;;;;;5089932;28;20184;-79
2021/09/18 06:27:21;;;;;;;0.67;0.60;;;14.20;99.90;;;;;;5092043;28;20211;-79
2021/09/18 06:29:47;;;;;;;0.50;0.50;;;14.30;99.90;;;;;;5082628;28;20185;-80
2021/09/18 06:32:12;;;;;;;1.20;0.97;;;14.30;99.90;;;;;;5084067;28;20192;-79
2021/09/18 06:34:38;;;;;;;0.47;0.47;;;14.30;99.90;;;;;;5077263;28;20184;-79
2021/09/18 06:37:05;;;;;;;2.13;1.10;;;14.40;99.90;;;;;;5090733;28;20206;-79
2021/09/18 06:39:31;;;;;;;1.50;1.40;;;14.50;99.90;;;;;;5073554;28;20184;-79
2021/09/18 06:41:56;;;;;;;0.50;0.43;;;14.60;99.90;;;;;;5072251;28;20557;-79
2021/09/18 06:44:22;;;;;;;0.63;0.63;;;14.70;99.90;;;;;;5076221;28;20193;-79
2021/09/18 06:46:48;;;;;;;0.60;0.60;;;14.80;99.90;;;;;;5085039;28;20189;-79
2021/09/18 06:49:13;;;;;;;0.53;0.43;;;14.90;99.90;;;;;;5085147;28;20225;-79
2021/09/18 06:51:39;;;;;;;0.50;0.50;;;14.90;99.90;;;;;;5080850;28;20747;-79
2021/09/18 06:54:05;;;;;;;0.10;0.10;;;15.00;99.90;;;;;;5084828;28;20181;-79
2021/09/18 06:56:31;;;;;;;0.33;0.33;;;15.10;99.90;;;;;;5070290;28;20173;-79
2021/09/18 06:58:57;;;;;;;0.43;0.43;;;15.20;99.90;;;;;;5081812;28;20196;-79
2021/09/18 07:01:23;;;;;;;0.73;0.20;;;15.30;99.90;;;;;;5075020;28;20556;-79
2021/09/18 07:03:49;;;;;;;0.57;0.43;;;15.50;99.90;;;;;;5078098;28;20280;-79
2021/09/18 07:06:15;;;;;;;0.33;0.33;;;15.60;99.90;;;;;;5078525;28;20583;-80
2021/09/18 07:08:40;;;;;;;0.30;0.30;;;15.80;99.90;;;;;;5075975;28;20214;-78
2021/09/18 07:11:06;;;;;;;0.20;0.20;;;15.90;99.90;;;;;;5085733;28;20272;-78
2021/09/18 07:13:32;;;;;;;0.30;0.30;;;16.00;99.90;;;;;;5078956;28;20189;-79
2021/09/18 07:15:57;;;;;;;6.33;1.20;;;16.20;99.90;;;;;;5082440;28;20326;-79
2021/09/18 07:18:23;;;;;;;0.40;0.40;;;16.30;99.90;;;;;;5086880;28;20180;-79
2021/09/18 07:20:48;;;;;;;0.40;0.40;;;16.50;99.90;;;;;;5089224;28;20197;-79
2021/09/18 07:23:14;;;;;;;0.80;0.37;;;16.50;99.90;;;;;;5084862;28;20187;-79
2021/09/18 07:25:40;;;;;;;0.97;0.83;;;16.70;99.90;;;;;;5059075;28;20187;-79
2021/09/18 07:28:06;;;;;;;0.50;0.50;;;16.60;99.90;;;;;;5078741;28;20389;-79
2021/09/18 07:30:32;;;;;;;0.43;0.43;;;16.60;99.90;;;;;;5064281;28;20207;-80
2021/09/18 07:32:57;;;;;;;0.43;0.43;;;16.60;99.90;;;;;;5068703;28;20192;-79
2021/09/18 07:35:23;;;;;;;0.30;0.30;;;16.70;99.90;;;;;;5076829;28;20667;-79
2021/09/18 07:37:49;;;;;;;0.93;0.40;;;16.80;99.90;;;;;;5052572;28;20190;-79
2021/09/18 07:40:14;;;;;;;0.57;0.30;;;17.00;99.90;;;;;;5051565;28;20296;-80
2021/09/18 07:42:41;;;;;;;0.20;0.20;;;17.10;99.90;;;;;;5074438;28;20234;-79
2021/09/18 07:45:08;;;;;;;0.77;0.53;;;17.30;99.90;;;;;;5067786;28;20191;-79
2021/09/18 07:47:33;;;;;;;0.80;0.80;;;16.90;99.90;;;;;;5067223;28;20232;-79
2021/09/18 07:49:59;;;;;;;0.63;0.63;;;17.00;99.90;;;;;;5097633;28;20588;-80
2021/09/18 07:52:25;;;;;;;0.60;0.57;;;17.30;99.90;;;;;;5085702;28;20229;-80
2021/09/18 07:54:50;;;;;;;0.43;0.43;;;17.60;99.90;;;;;;5071906;28;20196;-80
2021/09/18 07:57:16;;;;;;;0.30;0.30;;;17.70;99.90;;;;;;5080718;28;20284;-79
2021/09/18 07:59:42;;;;;;;0.80;0.80;;;17.80;99.90;;;;;;5064044;28;20733;-79
2021/09/18 08:02:07;;;;;;;0.77;0.73;;;17.90;99.90;;;;;;5076179;28;20183;-80
2021/09/18 08:04:33;;;;;;;0.30;0.30;;;17.80;99.90;;;;;;5079301;28;20654;-80
2021/09/18 08:06:59;;;;;;;0.67;0.67;;;18.10;99.90;;;;;;5073778;28;20185;-80
2021/09/18 08:09:24;;;;;;;1.07;0.93;;;18.10;99.90;;;;;;5073199;28;20762;-79
2021/09/18 08:11:51;;;;;;;0.53;0.53;;;18.40;99.90;;;;;;5074358;28;20219;-80
2021/09/18 08:14:16;;;;;;;0.87;0.70;;;18.60;99.90;;;;;;5081407;28;20270;-79
2021/09/18 08:16:42;;;;;;;0.63;0.63;;;18.70;99.90;;;;;;5075487;28;20213;-80
2021/09/18 08:19:08;;;;;;;0.50;0.50;;;18.80;99.90;;;;;;5072039;28;20188;-79
2021/09/18 08:21:33;;;;;;;0.73;0.73;;;19.10;99.90;;;;;;5074745;28;20232;-80
2021/09/18 08:23:59;;;;;;;0.87;0.87;;;19.20;99.90;;;;;;5077480;28;20603;-79
2021/09/18 08:26:29;;;;;;;0.80;0.80;;;18.90;99.90;;;;;;5078570;28;20196;-80
2021/09/18 08:28:57;;;;;;;1.37;1.00;;;18.80;99.90;;;;;;5086423;28;20200;-79
2021/09/18 08:31:23;;;;;;;2.93;1.50;;;18.90;99.90;;;;;;5084852;28;20199;-79
2021/09/18 08:33:49;;;;;;;1.67;1.07;;;18.40;99.90;;;;;;5068434;28;20178;-80
2021/09/18 08:36:14;;;;;;;2.00;0.90;;;18.80;99.90;;;;;;5072531;28;20216;-79
2021/09/18 08:38:40;;;;;;;1.07;1.00;;;19.20;99.90;;;;;;5069712;28;20539;-80
2021/09/18 08:41:07;;;;;;;1.23;1.10;;;19.50;99.90;;;;;;5078534;28;20275;-81
2021/09/18 08:43:32;;;;;;;1.30;1.13;;;19.70;99.90;;;;;;5071533;28;20185;-79
2021/09/18 08:45:59;;;;;;;5.03;1.17;;;19.70;99.90;;;;;;5064685;28;20226;-79
2021/09/18 08:48:26;;;;;;;1.50;1.13;;;19.90;99.90;;;;;;5068821;28;20232;-79
2021/09/18 08:50:52;;;;;;;0.77;0.77;;;19.60;99.90;;;;;;5086425;28;20227;-79
2021/09/18 08:53:21;;;;;;;1.27;1.07;;;20.00;99.90;;;;;;5079520;28;20189;-79
2021/09/18 08:55:57;;;;;;;1.77;0.70;;;20.30;99.90;;;;;;5080577;28;20576;-79
2021/09/18 08:58:24;;;;;;;0.80;0.80;;;20.50;99.90;;;;;;5069465;28;20192;-79
2021/09/18 09:00:52;;;;;;;0.80;0.80;;;20.70;99.90;;;;;;5074618;28;20205;-79
2021/09/18 09:03:33;;;;;;;1.37;1.13;;;20.50;99.90;;;;;;5083326;28;20191;-79
2021/09/18 09:06:07;;;;;;;0.90;0.87;;;20.70;99.90;;;;;;5075268;28;20203;-79
2021/09/18 09:08:33;;;;;;;0.83;0.83;;;21.00;99.90;;;;;;5084274;28;20299;-79
2021/09/18 09:11:17;;;;;;;1.30;1.30;;;21.20;99.90;;;;;;5079611;28;20893;-79
2021/09/18 09:14:04;;;;;;;0.37;0.37;;;21.40;99.90;;;;;;5074785;28;20208;-79
2021/09/18 09:16:32;;;;;;;1.00;1.00;;;21.30;99.90;;;;;;5078535;28;20216;-79
2021/09/18 09:18:58;;;;;;;0.57;0.57;;;21.50;99.90;;;;;;5074565;28;20577;-79
2021/09/18 09:21:27;;;;;;;0.73;0.40;;;21.80;99.90;;;;;;5080788;28;20209;-79
2021/09/18 09:24:13;;;;;;;1.47;0.87;;;21.90;99.90;;;;;;5078545;28;20280;-79
2021/09/18 09:26:41;;;;;;;1.80;1.43;;;21.90;99.90;;;;;;5086769;28;20278;-79
2021/09/18 09:29:07;;;;;;;1.63;1.53;;;21.90;99.90;;;;;;5078597;28;20680;-79
2021/09/18 09:31:38;;;;;;;0.93;0.70;;;21.30;99.90;;;;;;5086179;28;20291;-79
2021/09/18 09:34:15;;;;;;;0.90;0.90;;;21.50;99.90;;;;;;5072280;28;20188;-79
2021/09/18 09:36:48;;;;;;;1.37;1.27;;;21.70;99.90;;;;;;5080070;28;20176;-79
2021/09/18 09:39:23;;;;;;;0.70;0.70;;;21.80;99.90;;;;;;5075763;28;20233;-80
2021/09/18 09:41:54;;;;;;;1.57;1.27;;;22.00;99.90;;;;;;5087421;28;20950;-80
2021/09/18 09:44:22;;;;;;;1.40;1.27;;;21.60;99.90;;;;;;5075759;28;20191;-79
2021/09/18 09:47:03;;;;;;;2.20;2.10;;;21.60;99.90;;;;;;5080644;28;20199;-81
2021/09/18 09:49:59;;;;;;;0.77;0.77;;;22.10;99.90;;;;;;5069152;28;20219;-80
2021/09/18 09:52:30;;;;;;;1.07;0.80;;;22.40;99.90;;;;;;5080025;28;20181;-80
2021/09/18 09:55:05;;;;;;;1.70;1.60;;;22.60;99.90;;;;;;5082606;28;20198;-81
2021/09/18 09:57:31;;;;;;;1.17;0.63;;;22.50;99.90;;;;;;5096883;28;20209;-80
2021/09/18 10:00:04;;;;;;;1.80;1.60;;;22.80;99.90;;;;;;5079432;28;20255;-80
2021/09/18 10:02:30;;;;;;;1.63;1.23;;;22.50;99.90;;;;;;5075817;28;20181;-80
2021/09/18 10:04:56;;;;;;;2.57;1.57;;;22.00;99.90;;;;;;5079044;28;20204;-80
2021/09/18 10:07:21;;;;;;;0.90;0.90;;;22.40;99.90;;;;;;5081975;28;20591;-80
2021/09/18 10:09:47;;;;;;;2.10;1.83;;;22.70;99.90;;;;;;5078436;28;20173;-81
2021/09/18 10:12:13;;;;;;;2.00;1.77;;;22.20;99.90;;;;;;5087967;28;20184;-80
2021/09/18 10:14:45;;;;;;;1.90;1.43;;;22.20;99.90;;;;;;5064469;28;20192;-80
2021/09/18 10:17:11;;;;;;;2.03;1.27;;;22.40;99.90;;;;;;5087017;28;20180;-80
2021/09/18 10:24:51;;;;;;;1.30;1.17;;;22.70;99.90;;;;;;5083037;28;20387;-80
2021/09/18 10:27:20;;;;;;;1.23;0.93;;;23.00;99.90;;;;;;5073864;28;20241;-82
2021/09/18 10:29:47;;;;;;;0.87;0.83;;;23.00;99.90;;;;;;5093273;28;20213;-80
2021/09/18 10:32:13;;;;;;;2.50;2.30;;;23.20;99.90;;;;;;5077310;28;20207;-80
2021/09/18 10:34:39;;;;;;;2.30;1.00;;;23.30;99.90;;;;;;5082342;28;20185;-80
2021/09/18 10:37:06;;;;;;;1.90;1.67;;;23.40;99.90;;;;;;5078337;28;20173;-80
2021/09/18 10:39:32;;;;;;;1.50;1.30;;;23.40;99.90;;;;;;5094088;28;20183;-80
2021/09/18 10:42:00;;;;;;;5.43;2.30;;;23.20;99.90;;;;;;5082770;28;20200;-80
2021/09/18 10:44:46;;;;;;;3.73;2.90;;;22.90;99.90;;;;;;5063152;28;20189;-80
2021/09/18 10:47:40;;;;;;;2.83;2.20;;;22.90;99.90;;;;;;5073156;28;20263;-80
2021/09/18 10:50:26;;;;;;;2.53;1.67;;;22.50;99.90;;;;;;5073721;28;20619;-80
2021/09/18 10:52:58;;;;;;;2.57;2.13;;;22.90;99.90;;;;;;5084160;28;20184;-80
2021/09/18 10:55:24;;;;;;;3.27;2.67;;;22.60;99.90;;;;;;5079526;28;20215;-80
2021/09/18 10:58:02;;;;;;;3.67;1.53;;;22.80;99.90;;;;;;5080326;28;20548;-80
2021/09/18 11:00:30;;;;;;;4.43;1.73;;;23.00;99.90;;;;;;5075209;28;20212;-80
2021/09/18 11:02:57;;;;;;;1.30;1.07;;;23.10;99.90;;;;;;5087896;28;20188;-80
2021/09/18 11:05:26;;;;;;;1.90;1.50;;;23.60;99.90;;;;;;5083176;28;20193;-81
2021/09/18 11:08:01;;;;;;;2.13;0.80;;;24.00;99.90;;;;;;5086763;28;20708;-80
2021/09/18 11:10:29;;;;;;;2.30;2.10;;;24.10;99.90;;;;;;5062954;28;20210;-81
2021/09/18 11:13:07;;;;;;;3.07;1.70;;;23.60;99.90;;;;;;5077785;28;20173;-80
2021/09/18 11:15:47;;;;;;;2.37;2.17;;;23.40;99.90;;;;;;5065479;28;20218;-80
2021/09/18 11:18:31;;;;;;;2.63;2.43;;;22.60;99.90;;;;;;5076995;28;20665;-80
2021/09/18 11:21:24;;;;;;;4.13;2.70;;;22.70;99.90;;;;;;5078112;28;20211;-80
2021/09/18 11:24:24;;;;;;;1.13;1.10;;;22.40;99.90;;;;;;5084828;28;20222;-80
2021/09/18 11:26:57;;;;;;;1.17;1.07;;;22.50;99.90;;;;;;5064888;28;20219;-80
2021/09/18 11:29:34;;;;;;;2.67;1.57;;;22.90;99.90;;;;;;5064316;28;20201;-80
2021/09/18 11:32:21;;;;;;;1.83;1.57;;;23.10;99.90;;;;;;5067455;28;20220;-80
2021/09/18 11:34:52;;;;;;;1.30;1.17;;;23.70;99.90;;;;;;5088488;28;20317;-80
2021/09/18 11:37:28;;;;;;;1.73;1.63;;;24.10;99.90;;;;;;5081372;28;20245;-80
2021/09/18 11:39:58;;;;;;;2.50;1.40;;;23.90;99.90;;;;;;5087224;28;20180;-80
2021/09/18 11:42:37;;;;;;;1.57;0.73;;;24.10;99.90;;;;;;5074976;28;20579;-80
2021/09/18 11:45:29;;;;;;;2.00;1.67;;;24.40;99.90;;;;;;5064486;28;20322;-80
2021/09/18 11:47:57;;;;;;;1.60;0.93;;;24.50;99.90;;;;;;5074719;28;20218;-80
2021/09/18 11:50:29;;;;;;;2.47;2.00;;;24.50;99.90;;;;;;5074465;28;20259;-80
2021/09/18 11:53:03;;;;;;;1.27;1.13;;;23.70;99.90;;;;;;5071350;28;20199;-80
2021/09/18 11:55:40;;;;;;;2.33;1.63;;;24.10;99.90;;;;;;5074124;28;20736;-79
2021/09/18 11:58:19;;;;;;;1.53;1.40;;;23.90;99.90;;;;;;5066165;28;20189;-80
2021/09/18 12:00:54;;;;;;;1.10;0.87;;;23.90;99.90;;;;;;5072720;28;20200;-80
2021/09/18 12:03:31;;;;;;;2.13;1.70;;;24.30;99.90;;;;;;5084087;28;20263;-81
2021/09/18 12:06:00;;;;;;;1.93;0.80;;;24.10;99.90;;;;;;5083499;28;20218;-80
2021/09/18 12:08:27;;;;;;;3.13;2.30;;;24.60;99.90;;;;;;5074342;28;20225;-80
2021/09/18 12:11:01;;;;;;;2.77;1.80;;;24.30;99.90;;;;;;5087466;28;20577;-80
2021/09/18 12:13:27;;;;;;;2.13;1.20;;;24.80;99.90;;;;;;5090271;28;20180;-81
2021/09/18 12:15:54;;;;;;;1.70;1.50;;;24.90;99.90;;;;;;5068775;28;20224;-81
2021/09/18 12:18:29;;;;;;;1.43;1.30;;;24.20;99.90;;;;;;5072111;28;20200;-81
2021/09/18 12:21:17;;;;;;;1.43;1.37;;;24.00;99.90;;;;;;5080994;28;20203;-81
2021/09/18 12:23:46;;;;;;;1.97;1.67;;;24.20;99.90;;;;;;5084893;28;20200;-81
2021/09/18 12:26:13;;;;;;;1.20;1.10;;;24.40;99.90;;;;;;5086052;28;20654;-81
2021/09/18 12:28:39;;;;;;;1.07;1.03;;;25.20;99.90;;;;;;5078979;28;20258;-82
2021/09/18 12:31:22;;;;;;;2.17;1.13;;;24.60;99.90;;;;;;5081337;28;20201;-81
2021/09/18 12:33:51;;;;;;;2.07;1.60;;;25.30;99.90;;;;;;5090753;28;20203;-81
2021/09/18 12:36:19;;;;;;;1.57;1.40;;;25.70;99.90;;;;;;5087643;28;20237;-81
2021/09/18 12:38:48;;;;;;;1.80;1.50;;;25.30;99.90;;;;;;5092322;28;20229;-81
2021/09/18 12:41:21;;;;;;;2.17;1.27;;;25.00;99.90;;;;;;5074715;28;20212;-81
2021/09/18 12:44:02;;;;;;;4.63;2.00;;;25.70;99.90;;;;;;5084297;28;20188;-81
2021/09/18 12:46:29;;;;;;;1.50;1.20;;;26.10;99.90;;;;;;5082944;28;20193;-81
2021/09/18 12:49:01;;;;;;;3.33;1.27;;;25.60;99.90;;;;;;5086949;28;20567;-81
2021/09/18 12:51:29;;;;;;;1.40;1.30;;;25.90;99.90;;;;;;5095392;28;20200;-81
2021/09/18 12:53:57;;;;;;;1.37;1.27;;;25.20;99.90;;;;;;5083078;28;20642;-81
2021/09/18 12:56:28;;;;;;;1.93;1.30;;;25.60;99.90;;;;;;5085638;28;20181;-81
2021/09/18 12:59:03;;;;;;;2.27;1.40;;;25.70;99.90;;;;;;5086402;28;20234;-81